createdAt,value
2023-02-25T01:32:56.570Z,95440.09
2023-02-25T01:41:31.633Z,95448.97
2023-02-25T03:56:56.395Z,95537.38
2023-02-25T03:59:32.567Z,95534.28
2023-02-25T04:10:41.262Z,95551.44
2023-02-25T04:14:00.205Z,95560.34
2023-02-25T04:24:21.395Z,95552.19
2023-02-25T04:26:48.915Z,95552.97
2023-02-25T04:29:16.513Z,95552.34
2023-02-25T04:31:44.164Z,95554.59
2023-02-25T04:34:12.416Z,95557.81
2023-02-25T04:36:41.518Z,95558.63
2023-02-25T04:39:09.117Z,95553.47
2023-02-25T04:41:38.513Z,95547.66
2023-02-25T04:44:07.427Z,95561.09
2023-02-25T04:46:37.006Z,95548.34
2023-02-25T04:49:05.697Z,95560.47
2023-02-25T04:51:33.958Z,95561.41
2023-02-25T04:54:01.498Z,95561.25
2023-02-25T04:56:29.410Z,95574.00
2023-02-25T04:58:58.975Z,95561.09
2023-02-25T05:01:26.681Z,95571.28
2023-02-25T05:03:58.509Z,95563.22
2023-02-25T05:06:27.217Z,95562.44
2023-02-25T05:08:55.213Z,95566.97
2023-02-25T05:11:22.811Z,95566.53
2023-02-25T05:13:50.385Z,95563.47
2023-02-25T05:16:20.718Z,95558.47
2023-02-25T05:18:48.687Z,95563.63
2023-02-25T05:21:19.031Z,95552.88
2023-02-25T05:23:48.290Z,95566.63
2023-02-25T05:26:17.091Z,95558.91
2023-02-25T05:28:44.712Z,95562.63
2023-02-25T05:31:13.701Z,95563.25
2023-02-25T05:33:42.623Z,95562.94
2023-02-25T05:36:13.196Z,95551.00
2023-02-25T05:38:41.692Z,95554.56
2023-02-25T05:41:10.543Z,95567.63
2023-02-25T05:43:40.171Z,95562.63
2023-02-25T05:46:11.748Z,95566.19
2023-02-25T05:48:40.029Z,95570.22
2023-02-25T05:51:12.189Z,95571.66
2023-02-25T05:53:40.298Z,95565.97
2023-02-25T05:56:11.855Z,95570.00
2023-02-25T05:58:39.547Z,95570.81
2023-02-25T06:01:10.683Z,95575.16
2023-02-25T06:03:38.424Z,95578.56
2023-02-25T06:06:07.237Z,95583.72
2023-02-25T06:08:36.306Z,95591.28
2023-02-25T06:11:07.111Z,95585.03
2023-02-25T06:13:35.213Z,95594.72
2023-02-25T06:16:04.958Z,95595.53
2023-02-25T06:18:36.698Z,95598.75
2023-02-25T06:21:06.902Z,95594.22
2023-02-25T06:23:36.844Z,95606.78
2023-02-25T06:26:07.760Z,95606.00
2023-02-25T06:28:36.833Z,95602.13
2023-02-25T06:31:08.243Z,95607.66
2023-02-25T06:33:35.834Z,95604.56
2023-02-25T06:36:05.042Z,95619.44
2023-02-25T06:38:33.069Z,95623.66
2023-02-25T06:41:06.061Z,95622.81
2023-02-25T06:43:33.675Z,95623.28
2023-02-25T06:46:05.268Z,95620.22
2023-02-25T06:48:33.099Z,95605.38
2023-02-25T06:51:01.984Z,95615.56
2023-02-25T06:53:29.894Z,95616.25
2023-02-25T06:56:00.441Z,95606.91
2023-02-25T06:58:29.362Z,95619.19
2023-02-25T07:00:56.993Z,95629.22
2023-02-25T07:03:24.716Z,95629.72
2023-02-25T07:05:52.326Z,95636.00
2023-02-25T07:08:19.885Z,95636.31
2023-02-25T07:10:47.387Z,95641.47
2023-02-25T07:13:15.078Z,95636.66
2023-02-25T07:15:44.176Z,95631.84
2023-02-25T07:18:11.731Z,95637.00
2023-02-25T07:20:40.151Z,95628.28
2023-02-25T07:23:07.738Z,95627.28
2023-02-25T07:25:35.373Z,95628.28
2023-02-25T07:28:02.967Z,95636.34
2023-02-25T07:30:30.480Z,95639.41
2023-02-25T07:32:59.456Z,95646.34
2023-02-25T07:35:27.062Z,95644.72
2023-02-25T07:37:54.602Z,95639.88
2023-02-25T07:40:22.125Z,95638.44
2023-02-25T07:42:49.658Z,95635.03
2023-02-25T07:45:17.409Z,95641.16
2023-02-25T07:47:46.232Z,95635.34
2023-02-25T07:50:15.445Z,95634.34
2023-02-25T07:52:42.973Z,95640.31
2023-02-25T07:55:11.664Z,95636.91
2023-02-25T07:57:39.166Z,95633.69
2023-02-25T08:00:10.298Z,95637.88
2023-02-25T08:02:37.880Z,95640.81
2023-02-25T08:05:07.111Z,95645.00
2023-02-25T08:07:36.258Z,95636.94
2023-02-25T08:10:04.380Z,95645.34
2023-02-25T08:12:32.351Z,95644.41
2023-02-25T08:15:02.068Z,95635.81
2023-02-25T08:17:32.537Z,95636.31
2023-02-25T08:20:00.162Z,95638.06
2023-02-25T08:22:27.750Z,95641.75
2023-02-25T08:24:56.871Z,95643.88
2023-02-25T08:27:24.448Z,95648.06
2023-02-25T08:29:51.984Z,95650.63
2023-02-25T08:32:19.914Z,95650.63
2023-02-25T08:34:48.851Z,95655.66
2023-02-25T08:37:16.424Z,95659.50
2023-02-25T08:39:43.985Z,95653.22
2023-02-25T08:42:14.593Z,95651.13
2023-02-25T08:44:42.360Z,95655.47
2023-02-25T08:47:09.959Z,95650.13
2023-02-25T08:49:37.687Z,95644.47
2023-02-25T08:52:05.256Z,95641.75
2023-02-25T08:54:32.883Z,95646.41
2023-02-25T08:57:00.487Z,95648.63
2023-02-25T08:59:36.080Z,95646.22
2023-02-25T09:02:03.720Z,95647.19
2023-02-25T09:04:31.365Z,95637.69
2023-02-25T09:06:58.978Z,95638.66
2023-02-25T09:09:27.070Z,95643.97
2023-02-25T09:11:55.628Z,95648.97
2023-02-25T09:14:23.715Z,95645.91
2023-02-25T09:16:52.811Z,95643.97
2023-02-25T09:19:20.821Z,95649.75
2023-02-25T09:21:49.030Z,95650.75
2023-02-25T09:24:17.575Z,95646.69
2023-02-25T09:26:45.183Z,95650.09
2023-02-25T09:29:12.744Z,95652.34
2023-02-25T09:31:40.413Z,95647.03
2023-02-25T09:34:13.553Z,95645.91
2023-02-25T09:36:41.111Z,95641.38
2023-02-25T09:39:10.334Z,95644.16
2023-02-25T09:41:45.453Z,95648.50
2023-02-25T09:44:16.511Z,95646.56
2023-02-25T09:46:52.411Z,95647.19
2023-02-25T09:49:28.728Z,95655.34
2023-02-25T09:52:03.545Z,95660.03
2023-02-25T09:54:35.959Z,95646.50
2023-02-25T09:57:07.246Z,95654.56
2023-02-25T09:59:35.643Z,95647.97
2023-02-25T10:02:20.472Z,95654.56
2023-02-25T10:04:56.339Z,95656.38
2023-02-25T10:07:28.320Z,95657.16
2023-02-25T10:10:03.472Z,95652.97
2023-02-25T10:12:37.176Z,95649.13
2023-02-25T10:15:21.933Z,95651.41
2023-02-25T10:18:02.737Z,95645.91
2023-02-25T10:20:53.022Z,95640.41
2023-02-25T10:23:35.086Z,95643.63
2023-02-25T10:26:09.099Z,95647.66
2023-02-25T10:28:37.249Z,95636.84
2023-02-25T10:31:08.190Z,95643.16
2023-02-25T10:33:37.834Z,95633.31
2023-02-25T10:36:10.358Z,95632.97
2023-02-25T10:38:42.996Z,95633.09
2023-02-25T10:41:10.504Z,95621.28
2023-02-25T10:43:38.054Z,95612.56
2023-02-25T10:46:13.497Z,95617.22
2023-02-25T10:48:43.694Z,95634.63
2023-02-25T10:51:14.834Z,95628.19
2023-02-25T10:54:02.958Z,95621.44
2023-02-25T10:56:34.510Z,95622.22
2023-02-25T10:59:04.759Z,95619.25
2023-02-25T11:01:39.012Z,95620.16
2023-02-25T11:04:12.292Z,95624.53
2023-02-25T11:06:42.946Z,95623.75
2023-02-25T11:09:30.025Z,95618.22
2023-02-25T11:11:59.406Z,95608.69
2023-02-25T11:14:29.248Z,95609.78
2023-02-25T11:17:07.227Z,95606.84
2023-02-25T11:19:39.134Z,95611.69
2023-02-25T11:22:18.383Z,95611.03
2023-02-25T11:24:53.240Z,95602.75
2023-02-25T11:27:30.782Z,95603.91
2023-02-25T11:30:04.986Z,95604.59
2023-02-25T11:32:33.615Z,95606.84
2023-02-25T11:35:08.122Z,95608.47
2023-02-25T11:37:43.041Z,95599.06
2023-02-25T11:40:25.377Z,95607.44
2023-02-25T11:43:17.048Z,95600.31
2023-02-25T11:45:55.130Z,95591.59
2023-02-25T11:48:26.268Z,95596.38
2023-02-25T11:51:05.956Z,95590.25
2023-02-25T11:53:57.527Z,95588.56
2023-02-25T11:56:30.038Z,95584.19
2023-02-25T11:59:13.440Z,95584.19
2023-02-25T12:01:57.367Z,95582.59
2023-02-25T12:04:45.596Z,95576.16
2023-02-25T12:08:12.068Z,95576.69
2023-02-25T12:11:02.274Z,95579.22
2023-02-25T12:13:50.949Z,95572.16
2023-02-25T12:16:49.350Z,95570.56
2023-02-25T12:19:41.057Z,95570.56
2023-02-25T12:22:46.303Z,95580.63
2023-02-25T12:25:27.138Z,95575.84
2023-02-25T12:28:18.870Z,95580.88
2023-02-25T12:31:00.227Z,95578.16
2023-02-25T12:33:49.268Z,95575.50
2023-02-25T12:36:35.310Z,95575.94
2023-02-25T12:39:28.896Z,95577.34
2023-02-25T12:42:07.672Z,95568.88
2023-02-25T12:45:03.097Z,95573.22
2023-02-25T12:47:57.658Z,95564.41
2023-02-25T12:51:06.727Z,95559.31
2023-02-25T12:53:47.161Z,95570.41
2023-02-25T12:56:57.058Z,95561.53
2023-02-25T12:59:38.084Z,95562.16
2023-02-25T13:02:28.756Z,95566.59
2023-02-25T13:05:18.507Z,95560.50
2023-02-25T13:08:27.435Z,95566.19
2023-02-25T13:11:01.303Z,95565.75
2023-02-25T13:13:54.330Z,95556.66
2023-02-25T13:16:36.382Z,95551.94
2023-02-25T13:19:25.988Z,95545.63
2023-02-25T13:22:04.317Z,95553.44
2023-02-25T13:24:42.846Z,95552.19
2023-02-25T13:27:32.863Z,95557.69
2023-02-25T13:30:25.065Z,95559.66
2023-02-25T13:33:03.889Z,95556.38
2023-02-25T13:35:48.784Z,95557.84
2023-02-25T13:38:35.262Z,95546.28
2023-02-25T13:41:20.948Z,95551.56
2023-02-25T13:44:01.822Z,95547.03
2023-02-25T13:46:43.921Z,95538.19
2023-02-25T13:49:35.727Z,95542.59
2023-02-25T13:52:24.790Z,95549.56
2023-02-25T13:55:23.596Z,95542.00
2023-02-25T13:58:13.672Z,95539.22
2023-02-25T14:01:08.045Z,95542.44
2023-02-25T14:04:09.134Z,95533.25
2023-02-25T14:06:51.115Z,95544.03
2023-02-25T14:09:31.665Z,95548.03
2023-02-25T14:12:12.946Z,95545.91
2023-02-25T14:15:00.655Z,95545.44
2023-02-25T14:17:47.783Z,95546.72
2023-02-25T14:20:25.480Z,95546.59
2023-02-25T14:22:56.511Z,95556.81
2023-02-25T14:25:39.889Z,95558.59
2023-02-25T14:28:17.401Z,95558.06
2023-02-25T14:30:58.934Z,95558.53
2023-02-25T14:33:43.653Z,95558.94
2023-02-25T14:36:23.110Z,95568.81
2023-02-25T14:39:15.399Z,95559.63
2023-02-25T14:41:58.594Z,95558.75
2023-02-25T14:44:32.837Z,95560.25
2023-02-25T14:47:04.292Z,95550.78
2023-02-25T14:49:40.893Z,95540.19
2023-02-25T14:52:26.996Z,95546.28
2023-02-25T14:55:18.725Z,95552.59
2023-02-25T14:58:22.863Z,95544.69
2023-02-25T15:01:15.031Z,95549.75
2023-02-25T15:04:11.218Z,95559.22
2023-02-25T15:06:54.077Z,95564.88
2023-02-25T15:10:11.211Z,95563.69
2023-02-25T15:12:54.161Z,95569.22
2023-02-25T15:15:35.379Z,95566.81
2023-02-25T15:18:28.992Z,95570.75
2023-02-25T15:20:57.375Z,95581.03
2023-02-25T15:23:43.019Z,95575.09
2023-02-25T15:26:23.571Z,95584.03
2023-02-25T15:28:51.920Z,95585.00
2023-02-25T15:31:32.990Z,95612.66
2023-02-25T15:34:34.729Z,95625.66
2023-02-25T15:37:23.040Z,95640.31
2023-02-25T15:39:56.017Z,95654.78
2023-02-25T15:42:52.958Z,95654.81
2023-02-25T15:45:41.802Z,95666.69
2023-02-25T15:48:34.203Z,95662.75
2023-02-25T15:51:03.854Z,95646.63
2023-02-25T15:53:41.464Z,95649.72
2023-02-25T15:56:45.774Z,95658.59
2023-02-25T15:59:47.048Z,95664.75
2023-02-25T16:02:41.895Z,95663.78
2023-02-25T16:05:25.388Z,95669.75
2023-02-25T16:08:07.121Z,95662.16
2023-02-25T16:10:41.136Z,95675.06
2023-02-25T16:13:16.031Z,95674.91
2023-02-25T16:15:48.778Z,95674.91
2023-02-25T16:18:18.540Z,95685.38
2023-02-25T16:20:50.718Z,95690.03
2023-02-25T16:23:18.858Z,95688.94
2023-02-25T16:25:58.464Z,95677.66
2023-02-25T16:28:37.892Z,95678.78
2023-02-25T16:31:13.723Z,95684.75
2023-02-25T16:33:49.463Z,95691.19
2023-02-25T16:36:29.250Z,95697.00
2023-02-25T16:39:08.395Z,95703.44
2023-02-25T16:41:38.949Z,95695.72
2023-02-25T16:44:07.267Z,95708.59
2023-02-25T16:46:39.095Z,95709.91
2023-02-25T16:49:10.990Z,95717.28
2023-02-25T16:51:41.936Z,95727.78
2023-02-25T16:54:14.477Z,95732.00
2023-02-25T16:56:46.354Z,95743.13
2023-02-25T16:59:18.807Z,95745.84
2023-02-25T17:01:56.842Z,95740.19
2023-02-25T17:04:26.287Z,95739.25
2023-02-25T17:07:11.783Z,95736.97
2023-02-25T17:09:45.766Z,95747.63
2023-02-25T17:12:17.453Z,95749.56
2023-02-25T17:14:46.931Z,95755.69
2023-02-25T17:17:19.409Z,95753.94
2023-02-25T17:19:47.192Z,95757.13
2023-02-25T17:22:20.851Z,95755.38
2023-02-25T17:24:48.575Z,95758.44
2023-02-25T17:27:17.187Z,95764.25
2023-02-25T17:29:45.071Z,95765.69
2023-02-25T17:32:19.665Z,95771.63
2023-02-25T17:34:49.038Z,95774.56
2023-02-25T17:37:19.360Z,95776.97
2023-02-25T17:39:47.959Z,95780.81
2023-02-25T17:42:30.599Z,95784.19
2023-02-25T17:44:58.859Z,95786.13
2023-02-25T17:47:28.989Z,95791.41
2023-02-25T17:49:57.669Z,95795.91
2023-02-25T17:52:29.789Z,95803.00
2023-02-25T17:55:00.291Z,95802.38
2023-02-25T17:57:29.435Z,95793.38
2023-02-25T18:00:00.474Z,95800.28
2023-02-25T18:02:32.547Z,95800.75
2023-02-25T18:05:24.885Z,95807.53
2023-02-25T18:08:19.789Z,95808.50
2023-02-25T18:11:01.305Z,95811.75
2023-02-25T18:13:35.201Z,95808.84
2023-02-25T18:16:36.594Z,95808.66
2023-02-25T18:19:10.089Z,95814.97
2023-02-25T18:21:42.647Z,95815.16
2023-02-25T18:24:23.050Z,95813.53
2023-02-25T18:27:06.573Z,95813.53
2023-02-25T18:29:34.926Z,95817.09
2023-02-25T18:32:02.523Z,95814.47
2023-02-25T18:34:30.684Z,95819.78
2023-02-25T18:36:58.328Z,95825.22
2023-02-25T18:39:27.668Z,95825.25
2023-02-25T18:41:55.233Z,95820.75
2023-02-25T18:44:22.833Z,95828.81
2023-02-25T18:46:50.559Z,95826.09
2023-02-25T18:49:19.589Z,95830.44
2023-02-25T18:51:49.563Z,95824.31
2023-02-25T18:54:18.105Z,95833.00
2023-02-25T18:56:47.015Z,95829.28
2023-02-25T18:59:14.582Z,95831.41
2023-02-25T19:01:42.500Z,95832.31
2023-02-25T19:04:15.799Z,95833.94
2023-02-25T19:06:43.351Z,95833.94
2023-02-25T19:09:11.463Z,95831.50
2023-02-25T19:11:39.053Z,95840.69
2023-02-25T19:14:08.551Z,95841.06
2023-02-25T19:16:36.086Z,95846.88
2023-02-25T19:19:03.675Z,95849.78
2023-02-25T19:21:32.027Z,95853.66
2023-02-25T19:23:59.611Z,95852.69
2023-02-25T19:26:27.487Z,95851.56
2023-02-25T19:28:55.162Z,95852.81
2023-02-25T19:31:24.065Z,95855.56
2023-02-25T19:33:51.604Z,95859.06
2023-02-25T19:36:19.105Z,95862.56
2023-02-25T19:38:46.659Z,95863.84
2023-02-25T19:41:14.421Z,95869.59
2023-02-25T19:43:42.069Z,95866.94
2023-02-25T19:46:10.282Z,95867.84
2023-02-25T19:48:39.237Z,95878.47
2023-02-25T19:51:07.762Z,95874.44
2023-02-25T19:53:35.778Z,95881.34
2023-02-25T19:56:05.377Z,95886.13
2023-02-25T19:58:33.329Z,95889.91
2023-02-25T20:01:06.665Z,95891.81
2023-02-25T20:03:34.525Z,95898.06
2023-02-25T20:06:07.729Z,95904.16
2023-02-25T20:08:36.719Z,95917.06
2023-02-25T20:11:04.251Z,95916.09
2023-02-25T20:13:31.768Z,95910.66
2023-02-25T20:16:01.046Z,95914.69
2023-02-25T20:18:28.696Z,95924.03
2023-02-25T20:20:56.227Z,95913.41
2023-02-25T20:23:25.089Z,95926.09
2023-02-25T20:25:52.635Z,95926.03
2023-02-25T20:28:22.658Z,95929.66
2023-02-25T20:30:50.224Z,95931.06
2023-02-25T20:33:18.302Z,95939.75
2023-02-25T20:35:46.153Z,95941.66
2023-02-25T20:38:19.015Z,95946.31
2023-02-25T20:40:47.856Z,95948.72
2023-02-25T20:43:16.384Z,95955.28
2023-02-25T20:45:45.213Z,95946.38
2023-02-25T20:48:25.903Z,95956.97
2023-02-25T20:50:54.188Z,95953.16
2023-02-25T20:53:22.200Z,95957.19
2023-02-25T20:55:51.845Z,95956.38
2023-02-25T20:58:20.528Z,95958.56
2023-02-25T21:00:48.093Z,95965.94
2023-02-25T21:03:15.695Z,95965.63
2023-02-25T21:05:43.239Z,95965.63
2023-02-25T21:08:10.782Z,95966.75
2023-02-25T21:10:38.390Z,95971.09
2023-02-25T21:13:07.303Z,95960.78
2023-02-25T21:15:36.495Z,95966.88
2023-02-25T21:18:04.121Z,95963.34
2023-02-25T21:20:31.682Z,95966.88
2023-02-25T21:22:59.244Z,95968.16
2023-02-25T21:25:26.879Z,95974.81
2023-02-25T21:27:54.474Z,95978.00
2023-02-25T21:30:23.552Z,95970.41
2023-02-25T21:32:51.246Z,95978.00
2023-02-25T21:35:21.171Z,95975.81
2023-02-25T21:37:48.959Z,95981.28
2023-02-25T21:40:16.914Z,95983.97
2023-02-25T21:42:44.459Z,95991.03
2023-02-25T21:45:13.046Z,95987.94
2023-02-25T21:47:41.942Z,95993.53
2023-02-25T21:50:10.901Z,95990.97
2023-02-25T21:52:38.436Z,95988.88
2023-02-25T21:55:07.362Z,95989.69
2023-02-25T21:57:34.847Z,95990.00
2023-02-25T22:00:02.352Z,95991.63
2023-02-25T22:02:32.600Z,95994.19
2023-02-25T22:05:01.870Z,95994.84
2023-02-25T22:07:29.370Z,96002.28
2023-02-25T22:09:57.542Z,95993.47
2023-02-25T22:12:25.681Z,96000.25
2023-02-25T22:14:53.234Z,95998.63
2023-02-25T22:17:20.752Z,95998.38
2023-02-25T22:19:48.262Z,95995.28
2023-02-25T22:22:17.140Z,95995.44
2023-02-25T22:24:44.676Z,95990.84
2023-02-25T22:27:12.337Z,95990.47
2023-02-25T22:29:40.070Z,95997.13
2023-02-25T22:32:07.907Z,95994.19
2023-02-25T22:34:35.561Z,95995.28
2023-02-25T22:37:03.252Z,95996.38
2023-02-25T22:39:32.568Z,95996.66
2023-02-25T22:42:00.290Z,95996.88
2023-02-25T22:44:28.032Z,95999.19
2023-02-25T22:46:55.725Z,96005.13
2023-02-25T22:49:23.479Z,96007.03
2023-02-25T22:51:51.039Z,96010.53
2023-02-25T22:54:20.231Z,96012.75
2023-02-25T22:56:49.672Z,96019.78
2023-02-25T22:59:17.747Z,96021.31
2023-02-25T23:01:45.388Z,96021.31
2023-02-25T23:04:12.979Z,96018.78
2023-02-25T23:06:44.412Z,96020.13
2023-02-25T23:09:13.210Z,96019.06
2023-02-25T23:11:41.999Z,96028.53
2023-02-25T23:14:11.546Z,96028.00
2023-02-25T23:16:40.718Z,96030.81
2023-02-25T23:19:10.561Z,96029.47
2023-02-25T23:21:39.061Z,96040.59
2023-02-25T23:24:08.011Z,96032.72
2023-02-25T23:26:38.955Z,96037.88
2023-02-25T23:29:08.851Z,96038.81
2023-02-25T23:31:39.275Z,96040.97
2023-02-25T23:34:09.775Z,96041.91
2023-02-25T23:36:38.492Z,96050.28
2023-02-25T23:39:07.506Z,96048.41
2023-02-25T23:41:36.081Z,96045.41
2023-02-25T23:44:04.430Z,96048.78
2023-02-25T23:46:32.926Z,96046.22
2023-02-25T23:49:03.895Z,96042.03
2023-02-25T23:51:32.189Z,96044.75
2023-02-25T23:54:01.722Z,96048.78
2023-02-25T23:56:30.842Z,96052.69
2023-02-25T23:58:59.400Z,96048.22
